Time;durP1;ratioP1;P1;durP2;ratioP2;P2;SDS_P1;SDS_P2;PMS_P1;PMS_P2;Temp;Humidity;BMP_temperature;BMP_pressure;BME280_temperature;BME280_humidity;BME280_pressure;Samples;Min_cycle;Max_cycle;Signal;HPM_P1;HPM_P2
2024/01/04 00:00:43;;;;;;;4.40;1.70;;;10.40;99.90;;;;;;5012437;28;20187;-68
2024/01/04 00:03:09;;;;;;;3.53;1.50;;;10.40;99.90;;;;;;5017928;28;20588;-67
2024/01/04 00:05:34;;;;;;;4.00;1.50;;;10.40;99.90;;;;;;5015226;28;20214;-67
2024/01/04 00:08:00;;;;;;;8.97;1.77;;;10.40;99.90;;;;;;5017116;28;20200;-68
2024/01/04 00:10:26;;;;;;;5.60;1.90;;;10.40;99.90;;;;;;5008708;28;20209;-68
2024/01/04 00:12:53;;;;;;;7.80;1.60;;;10.40;99.90;;;;;;5015749;28;20188;-67
2024/01/04 00:15:18;;;;;;;8.13;1.90;;;10.40;99.90;;;;;;5010598;28;20212;-68
2024/01/04 00:17:44;;;;;;;7.67;1.90;;;10.40;99.90;;;;;;5016950;28;20917;-68
2024/01/04 00:20:10;;;;;;;3.80;1.90;;;10.40;99.90;;;;;;5011278;28;20250;-67
2024/01/04 00:22:36;;;;;;;6.10;1.40;;;10.50;99.90;;;;;;5018068;28;20625;-68
2024/01/04 00:25:02;;;;;;;8.37;2.77;;;10.50;99.90;;;;;;5019042;28;20534;-68
2024/01/04 00:27:28;;;;;;;5.70;2.17;;;10.50;99.90;;;;;;5016073;28;20823;-67
2024/01/04 00:29:53;;;;;;;5.80;1.90;;;10.40;99.90;;;;;;5015832;28;20440;-67
2024/01/04 00:32:19;;;;;;;7.63;1.60;;;10.50;99.90;;;;;;5012630;28;20177;-67
2024/01/04 00:34:44;;;;;;;4.40;1.60;;;10.50;99.90;;;;;;5007727;28;20220;-68
2024/01/04 00:37:10;;;;;;;4.50;2.13;;;10.40;99.90;;;;;;5011661;28;20172;-67
2024/01/04 00:39:36;;;;;;;5.23;1.80;;;10.50;99.90;;;;;;5020307;28;20192;-67
2024/01/04 00:42:04;;;;;;;12.70;2.10;;;10.50;99.90;;;;;;5016984;28;20185;-67
2024/01/04 00:44:29;;;;;;;4.20;1.50;;;10.50;99.90;;;;;;5015704;28;20934;-67
2024/01/04 00:46:55;;;;;;;6.87;1.70;;;10.50;99.90;;;;;;5019963;28;20423;-68
2024/01/04 00:49:21;;;;;;;4.13;1.43;;;10.40;99.90;;;;;;5017840;28;20224;-68
2024/01/04 00:51:47;;;;;;;4.13;1.20;;;10.40;99.90;;;;;;5020593;28;20185;-68
2024/01/04 00:54:13;;;;;;;3.00;1.27;;;10.40;99.90;;;;;;5014646;28;20263;-68
2024/01/04 00:56:38;;;;;;;5.07;1.40;;;10.40;99.90;;;;;;5016775;28;20416;-68
2024/01/04 00:59:04;;;;;;;2.47;1.20;;;10.40;99.90;;;;;;5020141;28;20189;-68
2024/01/04 01:01:32;;;;;;;3.43;1.40;;;10.40;99.90;;;;;;5019211;28;20266;-67
2024/01/04 01:03:58;;;;;;;2.70;1.40;;;10.40;99.90;;;;;;5018561;28;20365;-68
2024/01/04 01:06:23;;;;;;;3.83;1.30;;;10.40;99.90;;;;;;5016801;28;20549;-68
2024/01/04 01:08:49;;;;;;;4.20;1.80;;;10.40;99.90;;;;;;5020563;28;20760;-68
2024/01/04 01:11:15;;;;;;;4.87;1.50;;;10.40;99.90;;;;;;5017535;28;20188;-67
2024/01/04 01:13:41;;;;;;;4.73;1.70;;;10.40;99.90;;;;;;5015345;28;20212;-67
2024/01/04 01:16:08;;;;;;;8.27;1.90;;;10.40;99.90;;;;;;5016362;28;21006;-67
2024/01/04 01:18:34;;;;;;;4.23;1.30;;;10.40;99.90;;;;;;5022348;28;20222;-68
2024/01/04 01:20:59;;;;;;;2.83;1.43;;;10.30;99.90;;;;;;5017066;28;20434;-67
2024/01/04 01:23:25;;;;;;;3.50;1.47;;;10.30;99.90;;;;;;5019906;28;20455;-67
2024/01/04 01:25:50;;;;;;;3.67;1.70;;;10.30;99.90;;;;;;5019046;28;20221;-67
2024/01/04 01:28:16;;;;;;;4.40;1.43;;;10.30;99.90;;;;;;5018425;28;20875;-67
2024/01/04 01:30:42;;;;;;;4.93;1.47;;;10.30;99.90;;;;;;5015909;28;20189;-68
2024/01/04 01:33:07;;;;;;;3.40;1.70;;;10.30;99.90;;;;;;5010999;28;20291;-68
2024/01/04 01:35:33;;;;;;;5.60;2.43;;;10.30;99.90;;;;;;5019188;28;20200;-67
2024/01/04 01:37:58;;;;;;;6.33;1.97;;;10.30;99.90;;;;;;5011987;28;20185;-67
2024/01/04 01:40:24;;;;;;;5.00;1.43;;;10.40;99.90;;;;;;5011679;28;20674;-67
2024/01/04 01:42:50;;;;;;;3.50;1.67;;;10.40;99.90;;;;;;5012467;28;20188;-67
2024/01/04 01:45:20;;;;;;;3.37;1.40;;;10.30;99.90;;;;;;5010586;28;20301;-67
2024/01/04 01:47:46;;;;;;;4.67;1.30;;;10.30;99.90;;;;;;5016204;28;20713;-67
2024/01/04 01:50:13;;;;;;;3.30;1.20;;;10.30;99.90;;;;;;5018071;28;20427;-67
2024/01/04 01:52:40;;;;;;;3.20;1.40;;;10.30;99.90;;;;;;5020635;28;21012;-68
2024/01/04 01:55:07;;;;;;;5.77;1.20;;;10.40;99.90;;;;;;5016616;28;20487;-67
2024/01/04 01:57:33;;;;;;;5.23;1.60;;;10.40;99.90;;;;;;5017733;28;20442;-67
2024/01/04 02:00:03;;;;;;;4.63;1.30;;;10.40;99.90;;;;;;5018227;28;20458;-67
2024/01/04 02:02:29;;;;;;;2.83;1.27;;;10.40;99.90;;;;;;5018953;28;20272;-65
2024/01/04 02:04:55;;;;;;;3.97;1.20;;;10.40;99.90;;;;;;5016618;28;20522;-66
2024/01/04 02:07:21;;;;;;;5.17;1.27;;;10.50;99.90;;;;;;5015298;28;20776;-67
2024/01/04 02:09:47;;;;;;;3.50;1.10;;;10.40;99.90;;;;;;5015116;28;20255;-67
2024/01/04 02:12:13;;;;;;;4.77;1.70;;;10.40;99.90;;;;;;5017438;28;20198;-66
2024/01/04 02:14:39;;;;;;;1.90;1.07;;;10.40;99.90;;;;;;5015591;28;20490;-67
2024/01/04 02:17:06;;;;;;;3.57;1.23;;;10.40;99.90;;;;;;5008588;28;20474;-67
2024/01/04 02:19:32;;;;;;;3.20;1.20;;;10.10;99.90;;;;;;5017142;28;21116;-66
2024/01/04 02:21:58;;;;;;;2.53;1.00;;;10.20;99.90;;;;;;5014771;28;20416;-66
2024/01/04 02:24:25;;;;;;;3.10;1.17;;;10.10;99.90;;;;;;5014527;28;20950;-66
2024/01/04 02:26:51;;;;;;;2.80;1.20;;;10.10;99.90;;;;;;5021704;28;20415;-66
2024/01/04 02:29:18;;;;;;;3.43;1.37;;;10.00;99.90;;;;;;5020590;28;20883;-66
2024/01/04 02:31:45;;;;;;;2.93;1.10;;;10.00;99.90;;;;;;5017107;28;20192;-66
2024/01/04 02:34:11;;;;;;;3.23;1.87;;;10.00;99.90;;;;;;5018739;28;20464;-66
2024/01/04 02:36:36;;;;;;;3.53;1.50;;;10.10;99.90;;;;;;5014146;28;20434;-66
2024/01/04 02:39:02;;;;;;;3.40;1.30;;;10.00;99.90;;;;;;5017331;28;20415;-67
2024/01/04 02:41:28;;;;;;;2.20;1.10;;;10.10;99.90;;;;;;5012454;28;20182;-66
2024/01/04 02:43:53;;;;;;;2.70;1.20;;;10.00;99.90;;;;;;5012336;28;20205;-66
2024/01/04 02:46:19;;;;;;;4.17;1.47;;;10.00;99.90;;;;;;5015071;28;21096;-67
2024/01/04 02:48:44;;;;;;;6.87;1.30;;;10.00;99.90;;;;;;5014569;28;20188;-66
2024/01/04 02:51:10;;;;;;;6.67;1.40;;;10.00;99.90;;;;;;5018581;28;20519;-66
2024/01/04 02:53:36;;;;;;;4.37;1.20;;;10.00;99.90;;;;;;5016450;28;20962;-66
2024/01/04 02:56:02;;;;;;;4.70;1.20;;;10.00;99.90;;;;;;5021297;28;20185;-66
2024/01/04 02:58:28;;;;;;;5.20;1.23;;;10.10;99.90;;;;;;5013317;28;20184;-66
2024/01/04 03:00:54;;;;;;;4.73;1.50;;;10.00;99.90;;;;;;5021385;28;20883;-67
2024/01/04 03:03:20;;;;;;;4.53;1.23;;;10.00;99.90;;;;;;5013745;28;20235;-66
2024/01/04 03:05:45;;;;;;;3.87;1.30;;;10.10;99.90;;;;;;5013525;28;20794;-66
2024/01/04 03:08:11;;;;;;;2.37;1.20;;;10.10;99.90;;;;;;5013393;28;20196;-66
2024/01/04 03:10:36;;;;;;;4.03;1.30;;;10.20;99.90;;;;;;5014048;28;20896;-66
2024/01/04 03:13:04;;;;;;;2.90;1.10;;;10.10;99.90;;;;;;5027932;28;20246;-66
2024/01/04 03:15:30;;;;;;;3.27;1.50;;;10.10;99.90;;;;;;5012739;28;20353;-66
2024/01/04 03:17:56;;;;;;;3.70;1.30;;;10.10;99.90;;;;;;5012774;28;20510;-67
2024/01/04 03:20:22;;;;;;;4.57;1.40;;;10.10;99.90;;;;;;5012883;28;20307;-67
2024/01/04 03:22:47;;;;;;;2.73;1.37;;;10.00;99.90;;;;;;5018930;28;20610;-66
2024/01/04 03:25:13;;;;;;;7.27;1.77;;;10.00;99.90;;;;;;5010423;28;20173;-66
2024/01/04 03:27:39;;;;;;;2.97;1.40;;;10.10;99.90;;;;;;5016776;28;20691;-67
2024/01/04 03:30:06;;;;;;;4.47;1.80;;;10.10;99.90;;;;;;5016953;28;20227;-67
2024/01/04 03:32:33;;;;;;;6.27;2.03;;;10.10;99.90;;;;;;5017418;28;20185;-66
2024/01/04 03:34:59;;;;;;;3.63;1.23;;;10.10;99.90;;;;;;5018474;28;20467;-66
2024/01/04 03:37:24;;;;;;;4.17;1.60;;;10.20;99.90;;;;;;5015651;28;20310;-66
2024/01/04 03:39:50;;;;;;;4.97;1.80;;;10.20;99.90;;;;;;5017543;28;20177;-67
2024/01/04 03:42:15;;;;;;;3.47;1.60;;;10.20;99.90;;;;;;5017053;28;20184;-67
2024/01/04 03:44:42;;;;;;;3.87;1.67;;;10.20;99.90;;;;;;5013478;28;20611;-67
2024/01/04 03:47:08;;;;;;;2.80;1.50;;;10.30;99.90;;;;;;5018618;28;20206;-66
2024/01/04 03:49:34;;;;;;;2.97;1.60;;;10.20;99.90;;;;;;5016969;28;20425;-66
2024/01/04 03:52:00;;;;;;;7.30;1.90;;;10.20;99.90;;;;;;5016156;28;20415;-67
2024/01/04 03:54:25;;;;;;;5.40;1.97;;;10.30;99.90;;;;;;5016072;28;20200;-66
2024/01/04 03:56:51;;;;;;;11.07;1.97;;;10.30;99.90;;;;;;5014895;28;20427;-66
2024/01/04 03:59:17;;;;;;;3.63;1.57;;;10.40;99.90;;;;;;5011797;28;20184;-67
2024/01/04 04:01:44;;;;;;;9.67;2.07;;;10.40;99.90;;;;;;5012959;28;20422;-67
2024/01/04 04:04:09;;;;;;;6.90;1.70;;;10.30;99.90;;;;;;5010691;28;20201;-67
2024/01/04 04:06:35;;;;;;;4.53;1.57;;;10.30;99.90;;;;;;5012473;28;20424;-67
2024/01/04 04:09:02;;;;;;;7.63;2.00;;;10.50;99.90;;;;;;5013197;28;20204;-67
2024/01/04 04:11:27;;;;;;;8.30;2.07;;;10.40;99.90;;;;;;5014494;28;20259;-67
2024/01/04 04:13:54;;;;;;;8.90;2.23;;;10.40;99.90;;;;;;5008945;28;20571;-67
2024/01/04 04:16:19;;;;;;;4.57;1.50;;;10.40;99.90;;;;;;5015838;28;20180;-67
2024/01/04 04:18:45;;;;;;;5.90;1.50;;;10.40;99.90;;;;;;5010310;28;20926;-67
2024/01/04 04:21:18;;;;;;;6.20;1.93;;;10.40;99.90;;;;;;5009978;28;20173;-68
2024/01/04 04:23:47;;;;;;;4.10;1.60;;;10.40;99.90;;;;;;5014019;28;20734;-67
2024/01/04 04:26:12;;;;;;;4.57;1.77;;;10.40;99.90;;;;;;5016071;28;20416;-67
2024/01/04 04:28:38;;;;;;;5.23;1.63;;;10.40;99.90;;;;;;5008038;28;20427;-67
2024/01/04 04:31:04;;;;;;;6.80;2.20;;;10.50;99.90;;;;;;5014770;28;20219;-68
2024/01/04 04:33:29;;;;;;;7.20;1.87;;;10.50;99.90;;;;;;5008830;28;20204;-68
2024/01/04 04:35:55;;;;;;;6.33;2.10;;;10.50;99.90;;;;;;5018352;28;20270;-67
2024/01/04 04:38:20;;;;;;;6.20;1.70;;;10.40;99.90;;;;;;5016501;28;20690;-67
2024/01/04 04:40:46;;;;;;;4.60;1.80;;;10.40;99.90;;;;;;5017693;28;20169;-67
2024/01/04 04:43:12;;;;;;;2.33;1.30;;;10.40;99.90;;;;;;5014277;28;20435;-66
2024/01/04 04:45:37;;;;;;;6.83;2.00;;;10.40;99.90;;;;;;5013355;28;20196;-67
2024/01/04 04:48:03;;;;;;;5.40;2.00;;;10.40;99.90;;;;;;5015957;28;20662;-66
2024/01/04 04:50:29;;;;;;;9.90;1.70;;;10.50;99.90;;;;;;5016693;28;20666;-66
2024/01/04 04:52:54;;;;;;;4.63;1.80;;;10.50;99.90;;;;;;5012001;28;20411;-68
2024/01/04 04:55:21;;;;;;;6.83;2.07;;;10.50;99.90;;;;;;5014609;28;20685;-67
2024/01/04 04:57:46;;;;;;;3.60;1.70;;;10.50;99.90;;;;;;5015154;28;20207;-67
2024/01/04 05:00:12;;;;;;;4.30;2.00;;;10.50;99.90;;;;;;5019438;28;20448;-67
2024/01/04 05:02:38;;;;;;;7.93;2.80;;;10.50;99.90;;;;;;5016975;28;20249;-67
2024/01/04 05:05:04;;;;;;;5.40;2.13;;;10.50;99.90;;;;;;5013700;28;20562;-67
2024/01/04 05:07:30;;;;;;;6.27;1.87;;;10.50;99.90;;;;;;5010933;28;20686;-67
2024/01/04 05:09:55;;;;;;;3.90;1.70;;;10.50;99.90;;;;;;5009213;28;20435;-67
2024/01/04 05:12:21;;;;;;;4.60;2.03;;;10.50;99.90;;;;;;5012524;28;20189;-67
2024/01/04 05:14:46;;;;;;;5.10;1.87;;;10.50;99.90;;;;;;5010945;28;20216;-67
2024/01/04 05:17:12;;;;;;;3.77;1.90;;;10.50;99.90;;;;;;5008962;28;20268;-67
2024/01/04 05:19:37;;;;;;;9.00;2.77;;;10.40;99.90;;;;;;5012731;28;20215;-67
2024/01/04 05:22:03;;;;;;;5.80;1.93;;;10.50;99.90;;;;;;5008343;28;20188;-67
2024/01/04 05:24:28;;;;;;;6.60;2.20;;;10.40;99.90;;;;;;5016679;28;20200;-67
2024/01/04 05:26:54;;;;;;;5.00;1.77;;;10.50;99.90;;;;;;5014288;28;20181;-67
2024/01/04 05:29:20;;;;;;;4.80;2.10;;;10.60;99.90;;;;;;5011783;28;20185;-67
2024/01/04 05:31:45;;;;;;;9.40;3.60;;;10.60;99.90;;;;;;5017678;28;20188;-67
2024/01/04 05:34:11;;;;;;;3.80;1.30;;;10.50;99.90;;;;;;5012456;28;20209;-67
2024/01/04 05:36:36;;;;;;;7.93;1.97;;;10.50;99.90;;;;;;5010517;28;20679;-67
2024/01/04 05:39:03;;;;;;;4.90;1.63;;;10.50;99.90;;;;;;5020537;28;20183;-67
2024/01/04 05:41:29;;;;;;;6.17;2.50;;;10.60;99.90;;;;;;5019170;28;20181;-67
2024/01/04 05:43:54;;;;;;;4.63;1.90;;;10.60;99.90;;;;;;5017422;28;20490;-67
2024/01/04 05:46:20;;;;;;;5.90;2.20;;;10.60;99.90;;;;;;5017420;28;20976;-67
2024/01/04 05:48:46;;;;;;;7.60;1.93;;;10.60;99.90;;;;;;5027198;28;20179;-67
2024/01/04 05:51:12;;;;;;;7.30;1.97;;;10.70;99.90;;;;;;5017971;28;20200;-67
2024/01/04 05:53:37;;;;;;;6.13;2.60;;;10.70;99.90;;;;;;5018326;28;20848;-67
2024/01/04 05:56:03;;;;;;;4.90;1.60;;;10.60;99.90;;;;;;5016449;28;20177;-67
2024/01/04 05:58:29;;;;;;;6.07;1.80;;;10.60;99.90;;;;;;5022354;28;20185;-67
2024/01/04 06:00:54;;;;;;;9.17;2.77;;;10.50;99.90;;;;;;5018163;28;20909;-66
2024/01/04 06:03:20;;;;;;;9.50;1.83;;;10.60;99.90;;;;;;5020923;28;20196;-66
2024/01/04 06:05:45;;;;;;;8.00;2.60;;;10.50;99.90;;;;;;5019868;28;20670;-67
2024/01/04 06:08:11;;;;;;;5.73;1.93;;;10.50;99.90;;;;;;5018149;28;20341;-66
2024/01/04 06:10:36;;;;;;;4.57;1.90;;;10.60;99.90;;;;;;5020800;28;20563;-67
2024/01/04 06:13:02;;;;;;;7.30;2.00;;;10.60;99.90;;;;;;5021332;28;20244;-66
2024/01/04 06:15:28;;;;;;;5.57;1.97;;;10.60;99.90;;;;;;5015685;28;20213;-66
2024/01/04 06:17:53;;;;;;;5.90;1.80;;;10.60;99.90;;;;;;5015341;28;20184;-66
2024/01/04 06:20:19;;;;;;;3.47;1.70;;;10.50;99.90;;;;;;5018378;28;20184;-66
2024/01/04 06:22:45;;;;;;;6.53;1.70;;;10.60;99.90;;;;;;5015645;28;20200;-67
2024/01/04 06:25:10;;;;;;;4.30;1.80;;;10.50;99.90;;;;;;5012962;28;20185;-67
2024/01/04 06:27:36;;;;;;;9.40;2.37;;;10.60;99.90;;;;;;5012909;28;20892;-67
2024/01/04 06:30:02;;;;;;;6.40;1.80;;;10.60;99.90;;;;;;5015881;28;20177;-66
2024/01/04 06:32:27;;;;;;;5.97;1.73;;;10.60;99.90;;;;;;5015990;28;20260;-67
2024/01/04 06:34:53;;;;;;;4.50;1.70;;;10.60;99.90;;;;;;5016792;28;20702;-67
2024/01/04 06:37:18;;;;;;;5.00;1.87;;;10.60;99.90;;;;;;5018380;28;20195;-66
2024/01/04 06:39:44;;;;;;;9.23;2.73;;;10.60;99.90;;;;;;5018297;28;20274;-67
2024/01/04 06:42:10;;;;;;;8.83;1.80;;;10.60;99.90;;;;;;5016714;28;20177;-67
2024/01/04 06:44:35;;;;;;;8.47;2.40;;;10.60;99.90;;;;;;5019570;28;20643;-67
2024/01/04 06:47:01;;;;;;;5.20;2.27;;;10.50;99.90;;;;;;5014512;28;20269;-66
2024/01/04 06:49:27;;;;;;;7.50;2.00;;;10.50;99.90;;;;;;5011988;28;20694;-67
2024/01/04 06:51:52;;;;;;;12.70;2.47;;;10.60;99.90;;;;;;5016506;28;20200;-67
2024/01/04 06:54:18;;;;;;;4.40;2.10;;;10.50;99.90;;;;;;5018499;28;20210;-67
2024/01/04 06:56:43;;;;;;;8.03;2.00;;;10.50;99.90;;;;;;5014809;28;20173;-67
2024/01/04 06:59:09;;;;;;;9.33;2.63;;;10.50;99.90;;;;;;5018879;28;20180;-67
2024/01/04 07:01:34;;;;;;;9.30;2.90;;;10.50;99.90;;;;;;5010587;28;20184;-67
2024/01/04 07:04:00;;;;;;;6.47;2.70;;;10.50;99.90;;;;;;5008125;28;20208;-67
2024/01/04 07:06:25;;;;;;;6.83;2.00;;;10.50;99.90;;;;;;5019168;28;20185;-67
2024/01/04 07:08:51;;;;;;;10.60;2.60;;;10.50;99.90;;;;;;5014719;28;20263;-67
2024/01/04 07:11:17;;;;;;;7.83;2.50;;;10.50;99.90;;;;;;5013787;28;20247;-67
2024/01/04 07:13:42;;;;;;;7.97;2.27;;;10.50;99.90;;;;;;5012703;28;20439;-67
2024/01/04 07:16:08;;;;;;;10.60;2.27;;;10.50;99.90;;;;;;5015577;28;20179;-67
2024/01/04 07:18:34;;;;;;;10.53;3.27;;;10.60;99.90;;;;;;5017223;28;20549;-67
2024/01/04 07:21:00;;;;;;;8.63;2.90;;;10.60;99.90;;;;;;5021677;28;20485;-67
2024/01/04 07:23:25;;;;;;;12.93;3.07;;;10.60;99.90;;;;;;5014010;28;20209;-66
2024/01/04 07:25:51;;;;;;;6.77;1.97;;;10.60;99.90;;;;;;5017262;28;20679;-66
2024/01/04 07:28:17;;;;;;;9.07;2.10;;;10.50;99.90;;;;;;5015395;28;20196;-66
2024/01/04 07:30:42;;;;;;;7.17;2.40;;;10.50;99.90;;;;;;5011554;28;20189;-66
2024/01/04 07:33:08;;;;;;;9.53;2.77;;;10.50;99.90;;;;;;5015256;28;20205;-67
2024/01/04 07:35:33;;;;;;;18.37;2.90;;;10.50;99.90;;;;;;5015578;28;20263;-67
2024/01/04 07:37:59;;;;;;;10.43;3.00;;;10.50;99.90;;;;;;5018244;28;20185;-67
2024/01/04 07:40:25;;;;;;;7.60;2.13;;;10.50;99.90;;;;;;5015063;28;20271;-67
2024/01/04 07:42:50;;;;;;;7.50;2.27;;;10.50;99.90;;;;;;5018260;28;20208;-67
2024/01/04 07:45:16;;;;;;;7.73;2.60;;;10.60;99.90;;;;;;5016725;28;20546;-66
2024/01/04 07:47:42;;;;;;;11.13;2.70;;;10.60;99.90;;;;;;5014800;28;20452;-67
2024/01/04 07:50:08;;;;;;;11.50;2.63;;;10.60;99.90;;;;;;5012059;28;20192;-67
2024/01/04 07:52:33;;;;;;;6.53;2.47;;;10.50;99.90;;;;;;5013130;28;20173;-66
2024/01/04 07:54:59;;;;;;;9.23;3.03;;;10.60;99.90;;;;;;5011931;28;20478;-66
2024/01/04 07:57:24;;;;;;;11.40;2.60;;;10.60;99.90;;;;;;5013569;28;20258;-66
2024/01/04 07:59:50;;;;;;;12.30;3.53;;;10.60;99.90;;;;;;5011434;28;20383;-66
2024/01/04 08:02:17;;;;;;;11.60;4.13;;;10.60;99.90;;;;;;5012711;28;20172;-66
2024/01/04 08:04:42;;;;;;;8.13;3.77;;;10.50;99.90;;;;;;5012881;28;20203;-66
2024/01/04 08:07:08;;;;;;;7.47;3.13;;;10.60;99.90;;;;;;5015787;28;21087;-66
2024/01/04 08:09:33;;;;;;;9.80;2.87;;;10.60;99.90;;;;;;5012736;28;20272;-66
2024/01/04 08:11:59;;;;;;;9.00;1.93;;;10.60;99.90;;;;;;5011956;28;20623;-67
2024/01/04 08:14:25;;;;;;;4.83;1.60;;;10.50;99.90;;;;;;5010969;28;20208;-67
2024/01/04 08:16:50;;;;;;;3.50;1.77;;;10.60;99.90;;;;;;5011637;28;20531;-67
2024/01/04 08:19:16;;;;;;;4.87;2.07;;;10.50;99.90;;;;;;5009167;28;20235;-67
2024/01/04 08:21:41;;;;;;;7.93;1.80;;;10.50;99.90;;;;;;5011412;28;20679;-67
2024/01/04 08:24:07;;;;;;;7.00;3.10;;;10.60;99.90;;;;;;5018882;28;20287;-67
2024/01/04 08:26:33;;;;;;;13.40;2.40;;;10.60;99.90;;;;;;5012174;28;20220;-67
2024/01/04 08:28:58;;;;;;;11.93;3.30;;;10.50;99.90;;;;;;5012431;28;20555;-67
2024/01/04 08:31:24;;;;;;;5.40;2.00;;;10.50;99.90;;;;;;5008826;28;20255;-67
2024/01/04 08:33:49;;;;;;;6.40;1.87;;;10.50;99.90;;;;;;5014470;28;20271;-66
2024/01/04 08:36:15;;;;;;;7.63;2.50;;;10.50;99.90;;;;;;5016632;28;20180;-67
2024/01/04 08:38:40;;;;;;;5.33;1.87;;;10.50;99.90;;;;;;5016727;28;20230;-67
2024/01/04 08:41:06;;;;;;;6.20;2.30;;;10.40;99.90;;;;;;5013117;28;20176;-67
2024/01/04 08:43:32;;;;;;;7.83;3.60;;;10.40;99.90;;;;;;5016789;28;20247;-66
2024/01/04 08:45:57;;;;;;;9.70;2.27;;;10.40;99.90;;;;;;5015325;28;20187;-66
2024/01/04 08:48:23;;;;;;;14.40;2.10;;;10.40;99.90;;;;;;5018083;28;20196;-67
2024/01/04 08:50:48;;;;;;;5.90;2.27;;;10.40;99.90;;;;;;5015818;28;20197;-66
2024/01/04 08:53:20;;;;;;;7.63;2.00;;;10.30;99.90;;;;;;5008990;28;20204;-67
2024/01/04 08:55:46;;;;;;;8.97;2.80;;;10.40;99.90;;;;;;5015315;28;20211;-66
2024/01/04 08:58:11;;;;;;;7.27;2.00;;;10.30;99.90;;;;;;5014639;28;20411;-66
2024/01/04 09:00:37;;;;;;;5.53;1.90;;;10.30;99.90;;;;;;5019078;28;20972;-66
2024/01/04 09:03:03;;;;;;;7.70;3.10;;;10.40;99.90;;;;;;5017639;28;20204;-66
2024/01/04 09:05:30;;;;;;;7.47;2.90;;;10.40;99.90;;;;;;5018500;28;20183;-67
2024/01/04 09:07:55;;;;;;;5.87;1.80;;;10.40;99.90;;;;;;5014516;28;20466;-67
2024/01/04 09:10:21;;;;;;;10.63;2.30;;;10.40;99.90;;;;;;5012749;28;20467;-67
2024/01/04 09:12:47;;;;;;;3.93;1.87;;;10.50;99.90;;;;;;5018696;28;20576;-67
2024/01/04 09:15:13;;;;;;;5.33;2.40;;;10.50;99.90;;;;;;5012043;28;20729;-67
2024/01/04 09:17:40;;;;;;;6.50;3.20;;;10.40;99.90;;;;;;5015244;28;20181;-66
2024/01/04 09:20:06;;;;;;;6.53;2.30;;;10.50;99.90;;;;;;5014838;28;20917;-66
2024/01/04 09:22:32;;;;;;;8.53;2.00;;;10.50;99.90;;;;;;5023330;28;20410;-66
2024/01/04 09:24:57;;;;;;;11.10;2.60;;;10.50;99.90;;;;;;5018595;28;20815;-67
2024/01/04 09:27:23;;;;;;;10.13;2.67;;;10.40;99.90;;;;;;5019728;28;20613;-66
2024/01/04 09:29:50;;;;;;;6.07;2.30;;;10.50;99.90;;;;;;5017177;28;20643;-66
2024/01/04 09:32:16;;;;;;;6.87;2.27;;;10.50;99.90;;;;;;5012820;28;20424;-66
2024/01/04 09:34:41;;;;;;;5.60;2.10;;;10.60;99.90;;;;;;5017799;28;21086;-66
2024/01/04 09:37:07;;;;;;;6.37;2.00;;;10.50;99.90;;;;;;5011734;28;20201;-66
2024/01/04 09:39:32;;;;;;;9.67;2.50;;;10.50;99.90;;;;;;5019184;28;20548;-67
2024/01/04 09:42:00;;;;;;;6.90;2.00;;;10.50;99.90;;;;;;5018249;28;20541;-66
2024/01/04 09:44:25;;;;;;;9.30;3.17;;;10.60;99.90;;;;;;5016658;28;20216;-66
2024/01/04 09:46:55;;;;;;;8.50;2.90;;;10.60;99.90;;;;;;5011417;28;20431;-66
2024/01/04 09:49:21;;;;;;;7.73;1.83;;;10.60;99.90;;;;;;5018545;28;20196;-66
2024/01/04 09:51:47;;;;;;;6.67;2.47;;;10.50;99.90;;;;;;5013669;28;20945;-67
2024/01/04 09:54:13;;;;;;;16.57;3.10;;;10.50;99.90;;;;;;5018956;28;20666;-67
2024/01/04 09:56:42;;;;;;;10.10;2.70;;;10.50;99.90;;;;;;5016132;28;20656;-67
2024/01/04 09:59:08;;;;;;;9.93;2.70;;;10.60;99.90;;;;;;5015315;28;20417;-66
2024/01/04 10:01:35;;;;;;;9.53;2.20;;;10.60;99.90;;;;;;5014027;28;20408;-66
2024/01/04 10:04:12;;;;;;;6.27;2.07;;;10.60;99.90;;;;;;5017830;28;20524;-66
2024/01/04 10:06:43;;;;;;;7.63;1.90;;;10.70;99.90;;;;;;5014477;28;20416;-66
2024/01/04 10:09:17;;;;;;;5.37;2.20;;;10.60;99.90;;;;;;5015452;28;20444;-66
2024/01/04 10:11:59;;;;;;;8.80;2.20;;;10.60;99.90;;;;;;5018133;28;20417;-66
2024/01/04 10:14:26;;;;;;;6.43;1.93;;;10.60;99.90;;;;;;5022011;28;20641;-66
2024/01/04 10:16:52;;;;;;;8.43;2.40;;;10.60;99.90;;;;;;5017821;28;20423;-67
2024/01/04 10:19:18;;;;;;;11.77;2.97;;;10.80;99.90;;;;;;5015866;28;20956;-67
2024/01/04 10:21:44;;;;;;;7.17;1.73;;;10.80;99.90;;;;;;5018355;28;20416;-66
2024/01/04 10:24:14;;;;;;;5.03;1.80;;;10.90;99.90;;;;;;5013242;28;20442;-66
2024/01/04 10:26:44;;;;;;;4.70;2.10;;;11.00;99.90;;;;;;5015462;28;20177;-67
2024/01/04 10:29:10;;;;;;;8.73;2.87;;;10.90;99.90;;;;;;5014470;28;20934;-67
2024/01/04 10:31:36;;;;;;;5.17;2.13;;;10.90;99.90;;;;;;5016029;28;20427;-67
2024/01/04 10:34:02;;;;;;;6.63;1.87;;;10.80;99.90;;;;;;5016019;28;20441;-66
2024/01/04 10:36:28;;;;;;;3.30;1.73;;;10.80;99.90;;;;;;5014675;28;20173;-66
2024/01/04 10:39:02;;;;;;;6.80;2.00;;;10.70;99.90;;;;;;5019165;28;20423;-66
2024/01/04 10:41:29;;;;;;;7.30;1.93;;;10.70;99.90;;;;;;5019356;28;20438;-66
2024/01/04 10:44:07;;;;;;;6.43;1.83;;;10.60;99.90;;;;;;5013773;28;20792;-67
2024/01/04 10:46:34;;;;;;;5.70;1.83;;;10.60;99.90;;;;;;5016241;28;20462;-67
2024/01/04 10:49:02;;;;;;;8.63;3.00;;;10.60;99.90;;;;;;5020609;28;20848;-67
2024/01/04 10:51:30;;;;;;;4.73;2.13;;;10.50;99.90;;;;;;5016966;28;20785;-67
2024/01/04 10:54:00;;;;;;;10.00;2.30;;;10.50;99.90;;;;;;5014591;28;21099;-67
2024/01/04 10:56:28;;;;;;;8.33;2.07;;;10.60;99.90;;;;;;5014590;28;20415;-67
2024/01/04 10:58:55;;;;;;;6.63;1.70;;;10.80;99.90;;;;;;5008791;28;20470;-67
2024/01/04 11:01:21;;;;;;;6.77;2.00;;;10.90;99.90;;;;;;5013376;28;20438;-67
2024/01/04 11:03:48;;;;;;;6.47;1.83;;;10.90;99.90;;;;;;5016291;28;20432;-67
2024/01/04 11:06:15;;;;;;;4.53;1.70;;;10.90;99.90;;;;;;5012597;28;20432;-66
2024/01/04 11:08:41;;;;;;;6.83;2.67;;;10.80;99.90;;;;;;5013526;28;20440;-66
2024/01/04 11:11:09;;;;;;;5.37;2.10;;;10.80;99.90;;;;;;5014987;28;20431;-67
2024/01/04 11:13:35;;;;;;;12.90;4.00;;;10.80;99.90;;;;;;5013228;28;20918;-67
2024/01/04 11:16:10;;;;;;;7.10;2.10;;;10.80;99.90;;;;;;5016989;28;20483;-67
2024/01/04 11:18:48;;;;;;;8.70;2.13;;;10.70;99.90;;;;;;5013454;28;20296;-67
2024/01/04 11:22:08;;;;;;;5.63;2.20;;;10.80;99.90;;;;;;5016855;28;20507;-67
2024/01/04 11:24:50;;;;;;;5.30;2.17;;;10.90;99.90;;;;;;5016386;28;20490;-67
2024/01/04 11:27:17;;;;;;;7.20;2.20;;;10.40;99.90;;;;;;5014962;28;20411;-67
2024/01/04 11:29:44;;;;;;;6.23;2.20;;;10.30;99.90;;;;;;5015215;28;20474;-67
2024/01/04 11:32:10;;;;;;;2.77;1.57;;;10.10;99.90;;;;;;5013948;28;20431;-67
2024/01/04 11:34:39;;;;;;;6.83;2.10;;;10.00;99.90;;;;;;5014703;28;20594;-66
2024/01/04 11:37:16;;;;;;;4.40;1.80;;;9.80;99.90;;;;;;5015969;28;20453;-66
2024/01/04 11:40:03;;;;;;;4.83;1.70;;;9.60;99.90;;;;;;5013398;28;20908;-66
2024/01/04 11:42:39;;;;;;;8.27;2.37;;;9.70;99.90;;;;;;5015663;28;20485;-66
2024/01/04 11:45:13;;;;;;;6.57;2.20;;;9.80;99.90;;;;;;5010553;28;20442;-66
2024/01/04 11:47:41;;;;;;;6.93;2.43;;;10.00;99.90;;;;;;5013333;28;20448;-66
2024/01/04 11:50:17;;;;;;;8.80;1.60;;;10.00;99.90;;;;;;5019052;28;20421;-67
2024/01/04 11:52:45;;;;;;;4.20;1.70;;;10.00;99.90;;;;;;5015009;28;20506;-67
2024/01/04 11:55:12;;;;;;;4.33;1.60;;;10.10;99.90;;;;;;5009142;28;20893;-66
2024/01/04 11:57:38;;;;;;;6.13;1.97;;;10.20;99.90;;;;;;5013687;28;20984;-67
2024/01/04 12:00:16;;;;;;;6.67;1.97;;;10.40;99.90;;;;;;5010148;28;20887;-66
2024/01/04 12:02:42;;;;;;;6.10;2.20;;;10.60;99.90;;;;;;5012962;28;20407;-66
2024/01/04 12:05:08;;;;;;;6.93;1.77;;;10.80;99.90;;;;;;5016585;28;20490;-67
2024/01/04 12:07:35;;;;;;;7.80;2.07;;;11.20;99.90;;;;;;5014600;28;20447;-66
2024/01/04 12:10:01;;;;;;;6.53;2.20;;;11.40;99.90;;;;;;5022897;28;20431;-67
2024/01/04 12:12:27;;;;;;;4.17;2.10;;;11.20;99.90;;;;;;5015802;28;20441;-66
2024/01/04 12:14:53;;;;;;;5.87;1.80;;;11.20;99.90;;;;;;5017747;28;20463;-66
2024/01/04 12:17:19;;;;;;;8.80;2.27;;;11.10;99.90;;;;;;5010617;28;20193;-66
2024/01/04 12:19:44;;;;;;;12.53;2.20;;;11.10;99.90;;;;;;5012463;28;20268;-66
2024/01/04 12:22:10;;;;;;;11.57;2.47;;;11.00;99.90;;;;;;5009450;28;20498;-66
2024/01/04 12:24:41;;;;;;;10.37;2.70;;;11.00;99.90;;;;;;5019736;28;20258;-66
2024/01/04 12:27:07;;;;;;;6.70;2.33;;;11.00;99.90;;;;;;5009977;28;20424;-66
2024/01/04 12:29:33;;;;;;;9.33;2.33;;;10.80;99.90;;;;;;5017707;28;20439;-66
2024/01/04 12:31:59;;;;;;;6.67;2.37;;;10.70;99.90;;;;;;5020127;28;20757;-66
2024/01/04 12:34:25;;;;;;;8.10;2.73;;;10.70;99.90;;;;;;5017071;28;20274;-67
2024/01/04 12:36:50;;;;;;;7.07;2.60;;;10.60;99.90;;;;;;5022865;28;20414;-66
2024/01/04 12:39:16;;;;;;;10.10;2.53;;;10.60;99.90;;;;;;5019482;28;20646;-67
2024/01/04 12:41:48;;;;;;;6.43;2.37;;;10.60;99.90;;;;;;5020045;28;20578;-67